Data for 02/07/2007

Time Sea-Level Adjusted Pressure Absolute Pressure Temperature Relative Humidity Dew Point   
(mb) (inHg) (mb) (inHg) (C) (F) (%) (C) (F)
00:05 1018 30.06 847 25.01 3.1 37.5 75 -0.9 30.4
00:10 1018 30.06 847 25.01 2.7 36.9 77 -0.8 30.5
00:15 1018 30.06 847 25.01 2.3 36.1 80 -0.8 30.6
00:20 1018 30.06 847 25.01 2.2 35.9 80 -0.9 30.4
00:25 1018 30.06 847 25.01 2.3 36.2 79 -1 30.2
00:30 1018 30.06 847 25.01 2.6 36.7 77 -1 30.3
00:35 1018 30.06 847 25.01 2.8 37.1 75 -1.2 29.8
00:40 1018 30.06 847 25.01 3 37.4 74 -1.2 29.9
00:45 1018 30.06 847 25.01 2.9 37.2 75 -1.2 29.9
00:50 1018 30.06 847 25.01 2.8 37.1 75 -1.2 29.8
00:55 1018 30.06 847 25.01 2.7 36.9 76 -1.2 29.9
01:00 1018 30.06 847 25.01 2.5 36.5 77 -1.2 29.8
01:05 1018 30.06 847 25.01 2.4 36.4 77 -1.2 29.9
01:10 1018 30.06 847 25.01 2.3 36.1 79 -1 30.2
01:15 1018 30.06 847 25.01 2.3 36.2 78 -1.2 29.8
01:20 1018 30.06 847 25.01 2.4 36.3 78 -1.1 30
01:25 1018 30.06 847 25.01 2.2 35.9 79 -1.1 30
01:30 1018 30.06 847 25.01 2.3 36.2 76 -1.4 29.5
01:35 1018 30.06 847 25.01 2.6 36.6 76 -1.2 29.9
01:40 1018 30.06 847 25.01 2.5 36.4 77 -1.2 29.9
01:45 1018 30.06 847 25.01 2.5 36.4 77 -1.2 29.8
01:50 1018 30.06 847 25.01 2.4 36.4 78 -1 30.1
01:55 1018 30.06 847 25.01 2.3 36.1 78 -1.1 30
02:00 1018 30.06 847 25.01 2.4 36.3 78 -1 30.2
02:05 1018 30.06 847 25.01 2.2 36 79 -1.1 30.1
02:10 1018 30.06 847 25.01 2.3 36.1 79 -1 30.2
02:15 1018 30.06 847 25.01 2.3 36.1 79 -1 30.2
02:20 1018 30.06 847 25.01 2.2 36 79 -1 30.2
02:25 1018 30.06 847 25.01 2.1 35.7 79 -1.2 29.9
02:30 1018 30.06 847 25.01 2 35.7 79 -1.2 29.8
02:35 1018 30.06 847 25.01 2 35.7 79 -1.2 29.8
02:40 1018 30.06 847 25.01 2 35.6 79 -1.2 29.9
02:45 1018 30.06 847 25.01 1.9 35.4 80 -1.2 29.9
02:50 1018 30.06 847 25.01 1.7 35.1 81 -1.1 29.9
02:55 1018 30.06 847 25.01 1.6 34.9 82 -1.1 30
03:00 1018 30.06 847 25.01 1.4 34.5 82 -1.3 29.6
03:05 1018 30.06 847 25.01 1.5 34.7 81 -1.4 29.5
03:10 1018 30.06 847 25.01 1.2 34.2 83 -1.4 29.5
03:15 1018 30.06 847 25.01 1 33.9 83 -1.5 29.3
03:20 1018 30.06 847 25.01 0.9 33.6 85 -1.4 29.5
03:25 1018 30.06 847 25.01 0.8 33.5 84 -1.5 29.3
03:30 1018 30.06 847 25.01 0.8 33.5 84 -1.5 29.3
03:35 1018 30.06 847 25.01 0.9 33.5 85 -1.5 29.4
03:40 1018 30.06 847 25.01 0.9 33.6 85 -1.4 29.4
03:45 1018 30.06 847 25.01 0.9 33.7 83 -1.6 29.2
03:50 1018 30.06 847 25.01 0.9 33.6 84 -1.5 29.4
03:55 1018 30.06 847 25.01 0.7 33.3 85 -1.6 29.1
04:00 1018 30.06 847 25.01 0.7 33.3 84 -1.6 29.1
04:05 1018 30.06 847 25.01 0.9 33.6 84 -1.5 29.3
04:10 1018 30.06 847 25.01 1 33.7 81 -1.9 28.5
04:15 1018 30.06 847 25.01 -0.2 31.7 90 -1.6 29.1
04:20 1018 30.06 847 25.01 -0.2 31.6 89 -1.8 28.8
04:25 1018 30.06 847 25.01 -0.1 31.7 89 -1.7 28.9
04:30 1018 30.06 847 25.01 -0.2 31.6 88 -2 28.5
04:35 1018 30.06 847 25.01 -0.3 31.5 89 -1.9 28.6
04:40 1018 30.06 847 25.01 0.2 32.4 87 -1.7 28.9
04:45 1018 30.06 847 25.01 0.4 32.8 86 -1.6 29.1
04:50 1018 30.06 847 25.01 0.5 32.8 85 -1.8 28.8
04:55 1018 30.06 847 25.01 0.1 32.2 87 -1.8 28.8
05:00 1018 30.06 847 25.01 0.2 32.3 86 -2 28.5
05:05 1018 30.06 847 25.01 -0 32 87 -2 28.5
05:10 1018 30.06 847 25.01 0 32 86 -2 28.4
05:15 1018 30.06 847 25.01 0.2 32.3 86 -2 28.5
05:20 1018 30.06 847 25.01 0.4 32.7 85 -1.9 28.6
05:25 1018 30.06 847 25.01 0.5 32.8 83 -2.1 28.3
05:30 1018 30.06 847 25.01 0.3 32.6 84 -2 28.3
05:35 1018 30.06 847 25.01 0.4 32.6 84 -2 28.4
05:40 1018 30.06 847 25.01 0.2 32.4 85 -2 28.4
05:45 1018 30.06 847 25.01 0.2 32.4 85 -1.9 28.5
05:50 1018 30.06 847 25.01 0.3 32.6 86 -1.8 28.8
05:55 1018 30.06 847 25.01 -0.1 31.9 86 -2.1 28.1
06:00 1018 30.06 847 25.01 -0.5 31.2 86 -2.5 27.5
06:05 1018 30.06 848 25.04 -0.8 30.6 89 -2.4 27.6
06:10 1018 30.06 848 25.04 -0.8 30.5 90 -2.2 28
06:15 1018 30.06 848 25.04 -0.7 30.7 90 -2.2 28
06:20 1018 30.06 848 25.04 -0.8 30.6 90 -2.2 28
06:25 1018 30.06 848 25.04 -0.6 31 88 -2.3 27.8
06:30 1018 30.06 848 25.04 -0.6 30.9 87 -2.4 27.6
06:35 1019 30.09 848 25.04 -0.9 30.4 89 -2.4 27.6
06:40 1019 30.09 848 25.04 -0.9 30.4 90 -2.3 27.8
06:45 1019 30.09 848 25.04 -0.8 30.6 89 -2.4 27.8
06:50 1019 30.09 848 25.04 -0.8 30.6 88 -2.5 27.5
06:55 1019 30.09 848 25.04 -1 30.2 89 -2.6 27.2
07:00 1019 30.09 848 25.04 -1.2 29.8 90 -2.7 27.1
07:05 1019 30.09 848 25.04 -1.4 29.5 91 -2.7 27.1
07:10 1019 30.09 848 25.04 -1.4 29.4 92 -2.5 27.5
07:15 1019 30.09 848 25.04 -1.4 29.5 93 -2.5 27.5
07:20 1019 30.09 848 25.04 -1.5 29.3 93 -2.5 27.5
07:25 1019 30.09 848 25.04 -1.5 29.3 93 -2.5 27.5
07:30 1019 30.09 848 25.04 -1.7 29 94 -2.5 27.6
07:35 1019 30.09 848 25.04 -1.8 28.7 94 -2.6 27.3
07:40 1019 30.09 848 25.04 -1.9 28.6 95 -2.6 27.3
07:45 1019 30.09 848 25.04 -2.1 28.3 95 -2.8 27
07:50 1019 30.09 848 25.04 -2 28.4 95 -2.7 27.1
07:55 1019 30.09 848 25.04 -1.9 28.5 95 -2.6 27.2
08:00 1019 30.09 848 25.04 -1.9 28.6 95 -2.6 27.3
08:05 1019 30.09 848 25.04 -1.9 28.6 94 -2.7 27.1
08:10 1019 30.09 848 25.04 -2.1 28.2 95 -2.9 26.9
08:15 1019 30.09 848 25.04 -1.9 28.5 94 -2.7 27.1
08:20 1019 30.09 848 25.04 -1.9 28.7 92 -3 26.6
08:25 1019 30.09 848 25.04 -1.9 28.6 92 -3.1 26.5
08:30 1019 30.09 848 25.04 -1.9 28.7 93 -2.9 26.8
08:35 1019 30.09 848 25.04 -1.9 28.6 93 -2.9 26.8
08:40 1019 30.09 848 25.04 -1.8 28.7 93 -2.8 26.9
08:45 1019 30.09 848 25.04 -1.6 29.1 93 -2.6 27.3
08:50 1019 30.09 848 25.04 -1.1 30.1 90 -2.4 27.6
08:55 1019 30.09 848 25.04 -0.6 31 87 -2.4 27.7
09:00 1019 30.09 848 25.04 -0.3 31.4 85 -2.5 27.5
09:05 1019 30.09 848 25.04 -0.4 31.3 86 -2.5 27.5
09:10 1019 30.09 848 25.04 -0.1 31.9 84 -2.5 27.5
09:15 1019 30.09 848 25.04 0.1 32.2 83 -2.5 27.5
09:20 1019 30.09 848 25.04 0.3 32.6 82 -2.5 27.6
09:25 1019 30.09 848 25.04 1 33.8 78 -2.3 27.8
09:30 1019 30.09 848 25.04 1.3 34.3 79 -2 28.4
09:35 1019 30.09 848 25.04 1.4 34.5 77 -2.1 28.2
09:40 1019 30.09 848 25.04 1.9 35.5 76 -1.9 28.5
09:45 1019 30.09 848 25.04 2.1 35.8 75 -1.8 28.8
09:50 1019 30.09 848 25.04 2.2 35.9 76 -1.6 29.1
09:55 1019 30.09 848 25.04 2.1 35.8 76 -1.7 29
10:00 1019 30.09 848 25.04 1.9 35.4 76 -1.9 28.6
10:05 1019 30.09 848 25.04 1.6 34.8 78 -1.9 28.7
10:10 1019 30.09 848 25.04 1.3 34.4 79 -1.9 28.5
10:15 1019 30.09 848 25.04 0.9 33.7 81 -2 28.4
10:20 1019 30.09 848 25.04 0.5 32.8 83 -2.1 28.2
10:25 1019 30.09 848 25.04 0.2 32.4 83 -2.3 27.8
10:30 1019 30.09 848 25.04 -0.2 31.6 87 -2.1 28.1
10:35 1019 30.09 848 25.04 -0.5 31.1 86 -2.6 27.4
10:40 1019 30.09 848 25.04 -1.6 29.1 91 -2.8 26.9
10:45 1019 30.09 848 25.04 -2.4 27.7 96 -2.9 26.7
10:50 1019 30.09 848 25.04 -1.8 28.8 96 -2.4 27.7
10:55 1019 30.09 848 25.04 -1.4 29.5 94 -2.3 27.9
11:00 1019 30.09 848 25.04 -1.2 29.8 92 -2.4 27.6
11:05 1019 30.09 848 25.04 -1.2 29.9 92 -2.3 27.9
11:10 1019 30.09 848 25.04 -1 30.2 91 -2.3 27.8
11:15 1019 30.09 848 25.04 -1 30.2 92 -2.2 28
11:20 1019 30.09 848 25.04 -0.1 31.9 87 -2 28.4
11:25 1019 30.09 848 25.04 0.7 33.3 81 -2.1 28.2
11:30 1019 30.09 848 25.04 1 33.8 82 -1.7 29
11:35 1019 30.09 848 25.04 1.7 35 79 -1.6 29.2
11:40 1019 30.09 848 25.04 1.7 35.1 80 -1.5 29.4
11:45 1019 30.09 848 25.04 1.9 35.4 78 -1.5 29.3
11:50 1019 30.09 848 25.04 1.9 35.5 79 -1.4 29.4
11:55 1019 30.09 848 25.04 2.5 36.5 75 -1.5 29.2
12:00 1019 30.09 848 25.04 2.6 36.6 77 -1.1 30.1
12:05 1019 30.09 848 25.04 3.1 37.5 73 -1.3 29.6
12:10 1019 30.09 848 25.04 3.3 38 72 -1.3 29.7
12:15 1018 30.06 848 25.04 3.5 38.3 72 -1.2 29.9
12:20 1018 30.06 848 25.04 3.3 37.9 73 -1.1 30
12:25 1018 30.06 848 25.04 3.5 38.4 71 -1.3 29.7
12:30 1018 30.06 848 25.04 4.2 39.6 68 -1.2 29.9
12:35 1018 30.06 847 25.01 4.1 39.3 71 -0.6 30.8
12:40 1018 30.06 847 25.01 4.3 39.8 68 -1.1 30.1
12:45 1018 30.06 847 25.01 4.3 39.7 68 -1 30.1
12:50 1018 30.06 847 25.01 4.3 39.7 69 -1 30.2
12:55 1018 30.06 847 25.01 4.6 40.3 67 -0.9 30.4
13:00 1018 30.06 847 25.01 4.6 40.3 67 -0.9 30.4
13:05 1018 30.06 847 25.01 4.7 40.5 67 -0.9 30.5
13:10 1018 30.06 847 25.01 4.9 40.7 68 -0.6 31
13:15 1018 30.06 847 25.01 4.7 40.5 68 -0.6 30.9
13:20 1018 30.06 847 25.01 5 41 65 -1 30.2
13:25 1018 30.06 847 25.01 5.1 41.2 66 -0.8 30.6
13:30 1018 30.06 847 25.01 5.1 41.2 65 -0.9 30.4
13:35 1018 30.06 847 25.01 5.6 42.1 63 -0.8 30.6
13:40 1018 30.06 847 25.01 6 42.7 63 -0.5 31.2
13:45 1018 30.06 847 25.01 6.2 43.2 63 -0.2 31.6
13:50 1018 30.06 847 25.01 5.1 41.1 69 -0.2 31.6
13:55 1018 30.06 847 25.01 4.2 39.6 72 -0.5 31.2
14:00 1018 30.06 847 25.01 3.6 38.5 74 -0.5 31.1
14:05 1018 30.06 847 25.01 3.7 38.6 71 -1 30.2
14:10 1018 30.06 847 25.01 3.2 37.7 77 -0.5 31.1
14:15 1018 30.06 847 25.01 2.4 36.3 80 -0.8 30.5
14:20 1017 30.03 847 25.01 2.9 37.2 74 -1.3 29.7
14:25 1017 30.03 847 25.01 4 39.2 70 -0.9 30.3
14:30 1017 30.03 846 24.98 4.3 39.8 70 -0.7 30.7
14:35 1017 30.03 846 24.98 5 40.9 67 -0.7 30.8
14:40 1017 30.03 846 24.98 5.1 41.2 66 -0.7 30.8
14:45 1017 30.03 846 24.98 5.3 41.6 67 -0.3 31.4
14:50 1017 30.03 846 24.98 4.7 40.5 68 -0.6 30.9
14:55 1017 30.03 846 24.98 5.3 41.5 67 -0.4 31.3
15:00 1017 30.03 846 24.98 5.6 42 65 -0.4 31.2
15:05 1017 30.03 846 24.98 4.6 40.4 71 -0.1 31.8
15:10 1017 30.03 846 24.98 4.1 39.4 73 -0.4 31.4
15:15 1017 30.03 846 24.98 4.4 40 70 -0.5 31.1
15:20 1017 30.03 846 24.98 4.8 40.6 70 -0.3 31.5
15:25 1017 30.03 846 24.98 4.6 40.3 71 -0.2 31.7
15:30 1017 30.03 846 24.98 4.2 39.6 72 -0.3 31.5
15:35 1017 30.03 846 24.98 4.2 39.5 72 -0.3 31.4
15:40 1017 30.03 846 24.98 4.2 39.5 72 -0.4 31.2
15:45 1017 30.03 846 24.98 4.2 39.6 72 -0.3 31.5
15:50 1017 30.03 846 24.98 3.6 38.5 76 -0.2 31.6
15:55 1017 30.03 846 24.98 2.8 37 80 -0.3 31.4
16:00 1017 30.03 846 24.98 2.4 36.4 81 -0.6 31
16:05 1017 30.03 846 24.98 2.1 35.7 83 -0.5 31.1
16:10 1017 30.03 846 24.98 1.9 35.5 83 -0.7 30.8
16:15 1017 30.03 846 24.98 1.4 34.6 86 -0.7 30.7
16:20 1017 30.03 846 24.98 0.7 33.2 89 -0.9 30.4
16:25 1017 30.03 846 24.98 0.3 32.5 91 -1 30.1
16:30 1017 30.03 846 24.98 0.1 32.2 92 -1.1 30.1
16:35 1017 30.03 846 24.98 0.2 32.4 91 -1.1 30.1
16:40 1017 30.03 846 24.98 0.4 32.8 91 -0.9 30.3
16:45 1017 30.03 846 24.98 0.5 32.9 90 -1 30.2
16:50 1017 30.03 846 24.98 0.7 33.3 88 -1.1 30.1
16:55 1017 30.03 846 24.98 0.7 33.3 88 -1 30.2
17:00 1017 30.03 846 24.98 0.7 33.3 88 -1 30.1
17:05 1017 30.03 846 24.98 0.4 32.7 90 -1.1 30
17:10 1017 30.03 846 24.98 0.3 32.5 91 -1.1 30
17:15 1017 30.03 846 24.98 0.4 32.8 90 -1 30.2
17:20 1017 30.03 846 24.98 0.6 33.1 89 -1 30.2
17:25 1017 30.03 846 24.98 0.5 32.9 90 -0.9 30.4
17:30 1017 30.03 846 24.98 0.4 32.7 91 -0.9 30.4
17:35 1017 30.03 846 24.98 0.3 32.5 92 -0.9 30.4
17:40 1017 30.03 846 24.98 0.2 32.3 92 -1 30.2
17:45 1017 30.03 846 24.98 0 32 92 -1.1 30
17:50 1017 30.03 846 24.98 -0.1 31.9 93 -1.1 30
17:55 1017 30.03 846 24.98 -0.2 31.6 93 -1.2 29.8
18:00 1017 30.03 846 24.98 -0.4 31.3 94 -1.2 29.8
18:05 1017 30.03 846 24.98 -0.4 31.3 94 -1.2 29.8
18:10 1017 30.03 846 24.98 -0.4 31.3 94 -1.3 29.7
18:15 1017 30.03 846 24.98 -0.6 31 94 -1.4 29.5
18:20 1017 30.03 846 24.98 -0.6 30.9 94 -1.4 29.4
18:25 1017 30.03 846 24.98 -0.8 30.6 94 -1.6 29
18:30 1017 30.03 846 24.98 -0.9 30.5 94 -1.7 29
18:35 1017 30.03 846 24.98 -1.1 30.1 96 -1.6 29.2
18:40 1017 30.03 846 24.98 -0.9 30.4 96 -1.4 29.5
18:45 1017 30.03 846 24.98 -0.8 30.5 96 -1.4 29.4
18:50 1017 30.03 846 24.98 -0.9 30.3 91 -2.2 28.1
18:55 1017 30.03 846 24.98 -1 30.1 84 -3.4 25.8
19:00 1017 30.03 846 24.98 -0.9 30.4 83 -3.5 25.7
19:05 1017 30.03 846 24.98 -0.9 30.4 83 -3.5 25.7
19:10 1017 30.03 846 24.98 -0.7 30.7 82 -3.5 25.8
19:15 1017 30.03 846 24.98 -0.6 30.9 81 -3.5 25.6
19:20 1017 30.03 846 24.98 -0.7 30.8 80 -3.8 25.2
19:25 1017 30.03 846 24.98 -0.7 30.8 80 -3.7 25.4
19:30 1017 30.03 846 24.98 -0.8 30.6 83 -3.4 25.9
19:35 1017 30.03 846 24.98 -1 30.1 92 -2.2 28.1
19:40 1017 30.03 846 24.98 -1.2 29.9 95 -1.9 28.7
19:45 1017 30.03 846 24.98 -1.1 29.9 95 -1.8 28.7
19:50 1017 30.03 846 24.98 -1.2 29.9 96 -1.8 28.8
19:55 1017 30.03 846 24.98 -1 30.2 95 -1.7 29
20:00 1017 30.03 846 24.98 -1.1 30 86 -3.1 26.5
20:05 1017 30.03 846 24.98 -1.3 29.7 83 -3.8 25.2
20:10 1017 30.03 846 24.98 -1.3 29.7 82 -4 24.8
20:15 1017 30.03 846 24.98 -1.4 29.5 83 -3.9 24.9
20:20 1017 30.03 846 24.98 -1.5 29.4 82 -4.1 24.7
20:25 1017 30.03 846 24.98 -1.4 29.5 84 -3.7 25.3
20:30 1017 30.03 846 24.98 -1.2 29.9 83 -3.7 25.3
20:35 1017 30.03 846 24.98 -1.1 30.1 81 -4 24.8
20:40 1017 30.03 846 24.98 -1.3 29.7 81 -4.2 24.5
20:45 1017 30.03 846 24.98 -1.6 29.1 82 -4.3 24.3
20:50 1017 30.03 846 24.98 -1.8 28.7 82 -4.5 23.8
20:55 1017 30.03 846 24.98 -2.1 28.2 83 -4.6 23.7
21:00 1017 30.03 846 24.98 -2.2 28 84 -4.6 23.7
21:05 1017 30.03 846 24.98 -2.2 28 84 -4.6 23.7
21:10 1017 30.03 846 24.98 -2.1 28.1 83 -4.7 23.5
21:15 1017 30.03 846 24.98 -2.2 28 83 -4.8 23.4
21:20 1017 30.03 846 24.98 -2.4 27.8 83 -4.8 23.3
21:25 1017 30.03 846 24.98 -2.3 27.9 83 -4.8 23.4
21:30 1017 30.03 846 24.98 -2.1 28.2 82 -4.8 23.4
21:35 1017 30.03 846 24.98 -2.1 28.3 82 -4.8 23.4
21:40 1017 30.03 846 24.98 -2 28.4 82 -4.7 23.5
21:45 1017 30.03 846 24.98 -2 28.4 81 -4.8 23.4
21:50 1017 30.03 846 24.98 -2 28.4 81 -4.8 23.4
21:55 1017 30.03 846 24.98 -2 28.4 81 -4.8 23.3
22:00 1017 30.03 846 24.98 -2.1 28.2 81 -5 23
22:05 1017 30.03 846 24.98 -2.5 27.5 82 -5.1 22.7
22:10 1017 30.03 846 24.98 -2.7 27.2 83 -5.2 22.6
22:15 1017 30.03 846 24.98 -2.8 27 82 -5.4 22.3
22:20 1017 30.03 846 24.98 -2.9 26.7 83 -5.4 22.3
22:25 1017 30.03 846 24.98 -2.8 27 82 -5.4 22.4
22:30 1017 30.03 846 24.98 -2.7 27.2 81 -5.5 22.2
22:35 1017 30.03 846 24.98 -2.8 27 82 -5.5 22.1
22:40 1017 30.03 846 24.98 -2.8 27 82 -5.5 22.1
22:45 1017 30.03 846 24.98 -2.7 27.1 82 -5.5 22.2
22:50 1017 30.03 846 24.98 -2.6 27.3 82 -5.3 22.4
22:55 1017 30.03 846 24.98 -2.5 27.6 80 -5.4 22.2
23:00 1017 30.03 846 24.98 -2.5 27.5 81 -5.4 22.3
23:05 1017 30.03 846 24.98 -2.4 27.6 81 -5.3 22.5
23:10 1017 30.03 846 24.98 -2.4 27.7 80 -5.4 22.4
23:15 1017 30.03 846 24.98 -2.4 27.7 80 -5.3 22.4
23:20 1017 30.03 846 24.98 -2.2 28 79 -5.3 22.4
23:25 1017 30.03 846 24.98 -2.5 27.6 79 -5.6 22
23:30 1017 30.03 846 24.98 -2.8 26.9 81 -5.7 21.7
23:35 1017 30.03 846 24.98 -3 26.7 81 -5.8 21.6
23:40 1017 30.03 846 24.98 -2.9 26.7 81 -5.8 21.6
23:45 1017 30.03 846 24.98 -3.2 26.3 82 -5.9 21.4
23:50 1016 30 846 24.98 -3.3 26 82 -6 21.3
23:55 1016 30 845 24.95 -3.4 25.9 83 -5.9 21.4
24:00 1016 30 846 24.98 -3.4 25.8 83 -5.8 21.5